<?xml version="1.0" encoding="UTF-8" standalone="no" ?>
<gpx xmlns="http://www.topografix.com/GPX/1/1" xmlns:xsi="http://www.w3.org/2001/XMLSchema-instance" xsi:schemaLocation="http://www.topografix.com/GPX/1/1 http://www.topografix.com/GPX/1/1/gpx.xsd" version="1.1" creator="VisuGPX - https://www.visugpx.com">
  <metadata>
    <name>circuit des mines de languin, Nort / Erdre</name>
    <desc><![CDATA[petit circuit rigole et mine]]></desc>
  </metadata>
  <trk>
    <name><![CDATA[circuit des mines de languin ]]></name>
    <desc><![CDATA[<h1>OruxMaps</h1><br /><hr align="center" width="480" style="height: 2px; width: 517px"/><h2>Nom: circuit des mines de languin </h2><br /><p>Temps de départ: 01/07/2012 15:23</p><p>Temps d'arrivée: 01/07/2012 15:44</p><p>Distance: 4,6 km (00:20)</p><p>Temps déplacement: 00:18</p><p>Vitesse moyenne: 13,3 km/h</p><p>Vitesse moyenne: 14,7 km/h</p><p>Vitess Max.: 32 km/h</p><p>Altitude minimale: 68 m</p><p>Altitude maximale: 106 m</p><p>Vitesse d'élévation: 244 m/h</p><p>Vitesse de descente: -668,5 m/h</p><p>Gain Altitude: 34 m</p><p>Perte Altitude: -25 m</p><p>Temps d'élévation: 00:08</p><p>Temps de descente: 00:02</p><hr align="center" width="480" style="height: 2px; width: 517px"/>]]></desc>
    <trkseg>
      <trkpt lat="47.4484" lon="-1.53268">
        <ele>68</ele>
        <time>2012-01-07T14:23:27Z</time>
      </trkpt>
      <trkpt lat="47.44818" lon="-1.53274">
        <ele>69.25952</ele>
        <time>2012-01-07T14:23:43Z</time>
      </trkpt>
      <trkpt lat="47.44783" lon="-1.53276">
        <ele>70</ele>
        <time>2012-01-07T14:23:50Z</time>
      </trkpt>
      <trkpt lat="47.44761" lon="-1.53283">
        <ele>69.75391</ele>
        <time>2012-01-07T14:23:54Z</time>
      </trkpt>
      <trkpt lat="47.44745" lon="-1.53296">
        <ele>70.50026</ele>
        <time>2012-01-07T14:23:58Z</time>
      </trkpt>
      <trkpt lat="47.44748" lon="-1.53326">
        <ele>70.94997</ele>
        <time>2012-01-07T14:24:06Z</time>
      </trkpt>
      <trkpt lat="47.44754" lon="-1.53352">
        <ele>70.9911</ele>
        <time>2012-01-07T14:24:12Z</time>
      </trkpt>
      <trkpt lat="47.44759" lon="-1.53379">
        <ele>70.99789</ele>
        <time>2012-01-07T14:24:17Z</time>
      </trkpt>
      <trkpt lat="47.44764" lon="-1.53405">
        <ele>70.99933</ele>
        <time>2012-01-07T14:24:21Z</time>
      </trkpt>
      <trkpt lat="47.4477" lon="-1.53435">
        <ele>70.99984</ele>
        <time>2012-01-07T14:24:26Z</time>
      </trkpt>
      <trkpt lat="47.44777" lon="-1.53472">
        <ele>71</ele>
        <time>2012-01-07T14:24:33Z</time>
      </trkpt>
      <trkpt lat="47.44785" lon="-1.535">
        <ele>71.13843</ele>
        <time>2012-01-07T14:24:39Z</time>
      </trkpt>
      <trkpt lat="47.44792" lon="-1.5353">
        <ele>71.01848</ele>
        <time>2012-01-07T14:24:46Z</time>
      </trkpt>
      <trkpt lat="47.44798" lon="-1.5356">
        <ele>71.002464</ele>
        <time>2012-01-07T14:24:53Z</time>
      </trkpt>
      <trkpt lat="47.44802" lon="-1.53588">
        <ele>71.00044</ele>
        <time>2012-01-07T14:24:59Z</time>
      </trkpt>
      <trkpt lat="47.44806" lon="-1.53615">
        <ele>70.56256</ele>
        <time>2012-01-07T14:25:06Z</time>
      </trkpt>
      <trkpt lat="47.44808" lon="-1.53643">
        <ele>70.075096</ele>
        <time>2012-01-07T14:25:13Z</time>
      </trkpt>
      <trkpt lat="47.44803" lon="-1.53669">
        <ele>70.01782</ele>
        <time>2012-01-07T14:25:18Z</time>
      </trkpt>
      <trkpt lat="47.44797" lon="-1.53695">
        <ele>70.003174</ele>
        <time>2012-01-07T14:25:24Z</time>
      </trkpt>
      <trkpt lat="47.44789" lon="-1.53721">
        <ele>70.00042</ele>
        <time>2012-01-07T14:25:31Z</time>
      </trkpt>
      <trkpt lat="47.44784" lon="-1.53749">
        <ele>70.00005</ele>
        <time>2012-01-07T14:25:38Z</time>
      </trkpt>
      <trkpt lat="47.44778" lon="-1.53779">
        <ele>70.00001</ele>
        <time>2012-01-07T14:25:45Z</time>
      </trkpt>
      <trkpt lat="47.44775" lon="-1.53806">
        <ele>70</ele>
        <time>2012-01-07T14:25:51Z</time>
      </trkpt>
      <trkpt lat="47.44775" lon="-1.53834">
        <ele>70</ele>
        <time>2012-01-07T14:25:58Z</time>
      </trkpt>
      <trkpt lat="47.44776" lon="-1.53862">
        <ele>70</ele>
        <time>2012-01-07T14:26:06Z</time>
      </trkpt>
      <trkpt lat="47.44785" lon="-1.53888">
        <ele>70</ele>
        <time>2012-01-07T14:26:56Z</time>
      </trkpt>
      <trkpt lat="47.44786" lon="-1.53918">
        <ele>70</ele>
        <time>2012-01-07T14:27:02Z</time>
      </trkpt>
      <trkpt lat="47.44787" lon="-1.53948">
        <ele>70</ele>
        <time>2012-01-07T14:27:08Z</time>
      </trkpt>
      <trkpt lat="47.44786" lon="-1.53976">
        <ele>70</ele>
        <time>2012-01-07T14:27:14Z</time>
      </trkpt>
      <trkpt lat="47.44782" lon="-1.54006">
        <ele>70</ele>
        <time>2012-01-07T14:27:21Z</time>
      </trkpt>
      <trkpt lat="47.44776" lon="-1.54034">
        <ele>70</ele>
        <time>2012-01-07T14:27:29Z</time>
      </trkpt>
      <trkpt lat="47.44772" lon="-1.54064">
        <ele>70</ele>
        <time>2012-01-07T14:27:36Z</time>
      </trkpt>
      <trkpt lat="47.44767" lon="-1.54094">
        <ele>69.5625</ele>
        <time>2012-01-07T14:27:42Z</time>
      </trkpt>
      <trkpt lat="47.4476" lon="-1.54122">
        <ele>69.10011</ele>
        <time>2012-01-07T14:27:48Z</time>
      </trkpt>
      <trkpt lat="47.44755" lon="-1.5415">
        <ele>69.01337</ele>
        <time>2012-01-07T14:27:55Z</time>
      </trkpt>
      <trkpt lat="47.44749" lon="-1.54178">
        <ele>69.00238</ele>
        <time>2012-01-07T14:28:01Z</time>
      </trkpt>
      <trkpt lat="47.44744" lon="-1.54206">
        <ele>69.00042</ele>
        <time>2012-01-07T14:28:07Z</time>
      </trkpt>
      <trkpt lat="47.4474" lon="-1.54233">
        <ele>69.00005</ele>
        <time>2012-01-07T14:28:14Z</time>
      </trkpt>
      <trkpt lat="47.44734" lon="-1.54259">
        <ele>69.00001</ele>
        <time>2012-01-07T14:28:20Z</time>
      </trkpt>
      <trkpt lat="47.4473" lon="-1.54287">
        <ele>69.25</ele>
        <time>2012-01-07T14:28:26Z</time>
      </trkpt>
      <trkpt lat="47.44725" lon="-1.54313">
        <ele>69.866516</ele>
        <time>2012-01-07T14:28:32Z</time>
      </trkpt>
      <trkpt lat="47.44719" lon="-1.54341">
        <ele>69.97624</ele>
        <time>2012-01-07T14:28:38Z</time>
      </trkpt>
      <trkpt lat="47.44714" lon="-1.54366">
        <ele>69.99577</ele>
        <time>2012-01-07T14:28:44Z</time>
      </trkpt>
      <trkpt lat="47.44709" lon="-1.54397">
        <ele>69.561935</ele>
        <time>2012-01-07T14:28:51Z</time>
      </trkpt>
      <trkpt lat="47.44703" lon="-1.54427">
        <ele>69.07501</ele>
        <time>2012-01-07T14:28:58Z</time>
      </trkpt>
      <trkpt lat="47.44699" lon="-1.54459">
        <ele>68.250656</ele>
        <time>2012-01-07T14:29:04Z</time>
      </trkpt>
      <trkpt lat="47.44696" lon="-1.54489">
        <ele>68.05948</ele>
        <time>2012-01-07T14:29:09Z</time>
      </trkpt>
      <trkpt lat="47.44689" lon="-1.54519">
        <ele>68.69771</ele>
        <time>2012-01-07T14:29:14Z</time>
      </trkpt>
      <trkpt lat="47.4468" lon="-1.54545">
        <ele>69.36577</ele>
        <time>2012-01-07T14:29:19Z</time>
      </trkpt>
      <trkpt lat="47.44666" lon="-1.54568">
        <ele>70.099495</ele>
        <time>2012-01-07T14:29:24Z</time>
      </trkpt>
      <trkpt lat="47.44652" lon="-1.54588">
        <ele>70.78631</ele>
        <time>2012-01-07T14:29:29Z</time>
      </trkpt>
      <trkpt lat="47.44636" lon="-1.54607">
        <ele>71.71198</ele>
        <time>2012-01-07T14:29:34Z</time>
      </trkpt>
      <trkpt lat="47.44635" lon="-1.54635">
        <ele>72.52686</ele>
        <time>2012-01-07T14:29:40Z</time>
      </trkpt>
      <trkpt lat="47.44645" lon="-1.54663">
        <ele>72.915794</ele>
        <time>2012-01-07T14:29:46Z</time>
      </trkpt>
      <trkpt lat="47.44657" lon="-1.54684">
        <ele>73.55814</ele>
        <time>2012-01-07T14:29:51Z</time>
      </trkpt>
      <trkpt lat="47.44671" lon="-1.5471">
        <ele>73.89514</ele>
        <time>2012-01-07T14:29:56Z</time>
      </trkpt>
      <trkpt lat="47.44684" lon="-1.54729">
        <ele>74.65041</ele>
        <time>2012-01-07T14:30:00Z</time>
      </trkpt>
      <trkpt lat="47.44696" lon="-1.54751">
        <ele>74.88939</ele>
        <time>2012-01-07T14:30:04Z</time>
      </trkpt>
      <trkpt lat="47.44708" lon="-1.54772">
        <ele>74.965004</ele>
        <time>2012-01-07T14:30:08Z</time>
      </trkpt>
      <trkpt lat="47.44723" lon="-1.54796">
        <ele>76</ele>
        <time>2012-01-07T14:30:13Z</time>
      </trkpt>
      <trkpt lat="47.44738" lon="-1.54821">
        <ele>76</ele>
        <time>2012-01-07T14:30:18Z</time>
      </trkpt>
      <trkpt lat="47.4475" lon="-1.54841">
        <ele>75.171875</ele>
        <time>2012-01-07T14:30:22Z</time>
      </trkpt>
      <trkpt lat="47.44766" lon="-1.54864">
        <ele>73.69997</ele>
        <time>2012-01-07T14:30:27Z</time>
      </trkpt>
      <trkpt lat="47.44776" lon="-1.54886">
        <ele>71</ele>
        <time>2012-01-07T14:30:31Z</time>
      </trkpt>
      <trkpt lat="47.4479" lon="-1.54909">
        <ele>72.51172</ele>
        <time>2012-01-07T14:30:36Z</time>
      </trkpt>
      <trkpt lat="47.44803" lon="-1.54933">
        <ele>74.224945</ele>
        <time>2012-01-07T14:30:41Z</time>
      </trkpt>
      <trkpt lat="47.44817" lon="-1.54963">
        <ele>78</ele>
        <time>2012-01-07T14:30:47Z</time>
      </trkpt>
      <trkpt lat="47.4483" lon="-1.54984">
        <ele>78</ele>
        <time>2012-01-07T14:30:52Z</time>
      </trkpt>
      <trkpt lat="47.44843" lon="-1.55006">
        <ele>78</ele>
        <time>2012-01-07T14:30:57Z</time>
      </trkpt>
      <trkpt lat="47.44858" lon="-1.55025">
        <ele>78.828125</ele>
        <time>2012-01-07T14:31:02Z</time>
      </trkpt>
      <trkpt lat="47.44872" lon="-1.55045">
        <ele>79.72191</ele>
        <time>2012-01-07T14:31:07Z</time>
      </trkpt>
      <trkpt lat="47.44885" lon="-1.55064">
        <ele>79.496506</ele>
        <time>2012-01-07T14:31:12Z</time>
      </trkpt>
      <trkpt lat="47.449" lon="-1.55083">
        <ele>79.11782</ele>
        <time>2012-01-07T14:31:17Z</time>
      </trkpt>
      <trkpt lat="47.44914" lon="-1.55102">
        <ele>79.02796</ele>
        <time>2012-01-07T14:31:22Z</time>
      </trkpt>
      <trkpt lat="47.44929" lon="-1.55124">
        <ele>79.69023</ele>
        <time>2012-01-07T14:31:27Z</time>
      </trkpt>
      <trkpt lat="47.44945" lon="-1.55145">
        <ele>79.94487</ele>
        <time>2012-01-07T14:31:33Z</time>
      </trkpt>
      <trkpt lat="47.44965" lon="-1.55143">
        <ele>79.99019</ele>
        <time>2012-01-07T14:31:39Z</time>
      </trkpt>
      <trkpt lat="47.44982" lon="-1.55128">
        <ele>79.74926</ele>
        <time>2012-01-07T14:31:48Z</time>
      </trkpt>
      <trkpt lat="47.44998" lon="-1.55115">
        <ele>79.07501</ele>
        <time>2012-01-07T14:31:56Z</time>
      </trkpt>
      <trkpt lat="47.45017" lon="-1.55105">
        <ele>79.00751</ele>
        <time>2012-01-07T14:32:04Z</time>
      </trkpt>
      <trkpt lat="47.45035" lon="-1.55098">
        <ele>79.867516</ele>
        <time>2012-01-07T14:32:11Z</time>
      </trkpt>
      <trkpt lat="47.45053" lon="-1.55096">
        <ele>79.982315</ele>
        <time>2012-01-07T14:32:18Z</time>
      </trkpt>
      <trkpt lat="47.45068" lon="-1.55081">
        <ele>80.864746</ele>
        <time>2012-01-07T14:32:26Z</time>
      </trkpt>
      <trkpt lat="47.45075" lon="-1.55055">
        <ele>81.42396</ele>
        <time>2012-01-07T14:32:34Z</time>
      </trkpt>
      <trkpt lat="47.45081" lon="-1.55027">
        <ele>82.17311</ele>
        <time>2012-01-07T14:32:41Z</time>
      </trkpt>
      <trkpt lat="47.45101" lon="-1.55012">
        <ele>83.20344</ele>
        <time>2012-01-07T14:32:51Z</time>
      </trkpt>
      <trkpt lat="47.45121" lon="-1.55004">
        <ele>84.60384</ele>
        <time>2012-01-07T14:32:59Z</time>
      </trkpt>
      <trkpt lat="47.4514" lon="-1.54995">
        <ele>85.630714</ele>
        <time>2012-01-07T14:33:06Z</time>
      </trkpt>
      <trkpt lat="47.45159" lon="-1.54989">
        <ele>85.93427</ele>
        <time>2012-01-07T14:33:12Z</time>
      </trkpt>
      <trkpt lat="47.45178" lon="-1.54987">
        <ele>85.984406</ele>
        <time>2012-01-07T14:33:17Z</time>
      </trkpt>
      <trkpt lat="47.45198" lon="-1.54982">
        <ele>85.9963</ele>
        <time>2012-01-07T14:33:22Z</time>
      </trkpt>
      <trkpt lat="47.45218" lon="-1.5498">
        <ele>85.99883</ele>
        <time>2012-01-07T14:33:26Z</time>
      </trkpt>
      <trkpt lat="47.45239" lon="-1.54976">
        <ele>86.57775</ele>
        <time>2012-01-07T14:33:30Z</time>
      </trkpt>
      <trkpt lat="47.4526" lon="-1.54972">
        <ele>86.8664</ele>
        <time>2012-01-07T14:33:34Z</time>
      </trkpt>
      <trkpt lat="47.45283" lon="-1.54967">
        <ele>86.957726</ele>
        <time>2012-01-07T14:33:38Z</time>
      </trkpt>
      <trkpt lat="47.45301" lon="-1.54963">
        <ele>86.98217</ele>
        <time>2012-01-07T14:33:41Z</time>
      </trkpt>
      <trkpt lat="47.45322" lon="-1.54959">
        <ele>87.57248</ele>
        <time>2012-01-07T14:33:45Z</time>
      </trkpt>
      <trkpt lat="47.4534" lon="-1.54944">
        <ele>88</ele>
        <time>2012-01-07T14:33:49Z</time>
      </trkpt>
      <trkpt lat="47.45343" lon="-1.54914">
        <ele>87</ele>
        <time>2012-01-07T14:33:53Z</time>
      </trkpt>
      <trkpt lat="47.4534" lon="-1.54886">
        <ele>87</ele>
        <time>2012-01-07T14:33:57Z</time>
      </trkpt>
      <trkpt lat="47.45337" lon="-1.54858">
        <ele>87</ele>
        <time>2012-01-07T14:34:01Z</time>
      </trkpt>
      <trkpt lat="47.45341" lon="-1.54828">
        <ele>87</ele>
        <time>2012-01-07T14:34:05Z</time>
      </trkpt>
      <trkpt lat="47.45356" lon="-1.54806">
        <ele>87.4375</ele>
        <time>2012-01-07T14:34:09Z</time>
      </trkpt>
      <trkpt lat="47.45373" lon="-1.54789">
        <ele>87.82202</ele>
        <time>2012-01-07T14:34:13Z</time>
      </trkpt>
      <trkpt lat="47.45391" lon="-1.54774">
        <ele>88.52181</ele>
        <time>2012-01-07T14:34:17Z</time>
      </trkpt>
      <trkpt lat="47.45407" lon="-1.54759">
        <ele>88.8487</ele>
        <time>2012-01-07T14:34:21Z</time>
      </trkpt>
      <trkpt lat="47.45424" lon="-1.54746">
        <ele>88.26853</ele>
        <time>2012-01-07T14:34:25Z</time>
      </trkpt>
      <trkpt lat="47.45439" lon="-1.54731">
        <ele>88.66309</ele>
        <time>2012-01-07T14:34:29Z</time>
      </trkpt>
      <trkpt lat="47.45456" lon="-1.54714">
        <ele>89.17005</ele>
        <time>2012-01-07T14:34:34Z</time>
      </trkpt>
      <trkpt lat="47.45475" lon="-1.54699">
        <ele>89.85229</ele>
        <time>2012-01-07T14:34:40Z</time>
      </trkpt>
      <trkpt lat="47.45494" lon="-1.54695">
        <ele>89.991684</ele>
        <time>2012-01-07T14:34:50Z</time>
      </trkpt>
      <trkpt lat="47.45504" lon="-1.54718">
        <ele>89.99852</ele>
        <time>2012-01-07T14:34:56Z</time>
      </trkpt>
      <trkpt lat="47.45514" lon="-1.5474">
        <ele>89.99965</ele>
        <time>2012-01-07T14:35:01Z</time>
      </trkpt>
      <trkpt lat="47.45524" lon="-1.54766">
        <ele>89.999954</ele>
        <time>2012-01-07T14:35:08Z</time>
      </trkpt>
      <trkpt lat="47.45534" lon="-1.54789">
        <ele>89.99999</ele>
        <time>2012-01-07T14:35:14Z</time>
      </trkpt>
      <trkpt lat="47.45542" lon="-1.54815">
        <ele>90.68359</ele>
        <time>2012-01-07T14:35:19Z</time>
      </trkpt>
      <trkpt lat="47.45551" lon="-1.54841">
        <ele>90.92491</ele>
        <time>2012-01-07T14:35:24Z</time>
      </trkpt>
      <trkpt lat="47.45559" lon="-1.54866">
        <ele>90.98663</ele>
        <time>2012-01-07T14:35:30Z</time>
      </trkpt>
      <trkpt lat="47.45568" lon="-1.54892">
        <ele>91</ele>
        <time>2012-01-07T14:35:36Z</time>
      </trkpt>
      <trkpt lat="47.45586" lon="-1.54888">
        <ele>91</ele>
        <time>2012-01-07T14:35:43Z</time>
      </trkpt>
      <trkpt lat="47.45602" lon="-1.54873">
        <ele>91</ele>
        <time>2012-01-07T14:35:50Z</time>
      </trkpt>
      <trkpt lat="47.45618" lon="-1.5486">
        <ele>91.866516</ele>
        <time>2012-01-07T14:35:58Z</time>
      </trkpt>
      <trkpt lat="47.45637" lon="-1.54847">
        <ele>91.98663</ele>
        <time>2012-01-07T14:36:06Z</time>
      </trkpt>
      <trkpt lat="47.45655" lon="-1.54832">
        <ele>92.24968</ele>
        <time>2012-01-07T14:36:19Z</time>
      </trkpt>
      <trkpt lat="47.45664" lon="-1.54809">
        <ele>93.89989</ele>
        <time>2012-01-07T14:36:38Z</time>
      </trkpt>
      <trkpt lat="47.45658" lon="-1.54783">
        <ele>95.14237</ele>
        <time>2012-01-07T14:36:47Z</time>
      </trkpt>
      <trkpt lat="47.4565" lon="-1.54755">
        <ele>95.91414</ele>
        <time>2012-01-07T14:36:55Z</time>
      </trkpt>
      <trkpt lat="47.45643" lon="-1.54729">
        <ele>96.85506</ele>
        <time>2012-01-07T14:37:02Z</time>
      </trkpt>
      <trkpt lat="47.45637" lon="-1.54701">
        <ele>97.80267</ele>
        <time>2012-01-07T14:37:09Z</time>
      </trkpt>
      <trkpt lat="47.45631" lon="-1.54675">
        <ele>98.54301</ele>
        <time>2012-01-07T14:37:15Z</time>
      </trkpt>
      <trkpt lat="47.45627" lon="-1.54645">
        <ele>99.376495</ele>
        <time>2012-01-07T14:37:22Z</time>
      </trkpt>
      <trkpt lat="47.45622" lon="-1.54618">
        <ele>100.35427</ele>
        <time>2012-01-07T14:37:29Z</time>
      </trkpt>
      <trkpt lat="47.45617" lon="-1.5459">
        <ele>101</ele>
        <time>2012-01-07T14:37:37Z</time>
      </trkpt>
      <trkpt lat="47.45608" lon="-1.54566">
        <ele>101</ele>
        <time>2012-01-07T14:37:44Z</time>
      </trkpt>
      <trkpt lat="47.45597" lon="-1.54542">
        <ele>101.82202</ele>
        <time>2012-01-07T14:37:51Z</time>
      </trkpt>
      <trkpt lat="47.45587" lon="-1.54517">
        <ele>101.96832</ele>
        <time>2012-01-07T14:37:57Z</time>
      </trkpt>
      <trkpt lat="47.45579" lon="-1.54491">
        <ele>102.75706</ele>
        <time>2012-01-07T14:38:03Z</time>
      </trkpt>
      <trkpt lat="47.4557" lon="-1.54467">
        <ele>102.96757</ele>
        <time>2012-01-07T14:38:10Z</time>
      </trkpt>
      <trkpt lat="47.45551" lon="-1.54476">
        <ele>104.067696</ele>
        <time>2012-01-07T14:38:17Z</time>
      </trkpt>
      <trkpt lat="47.45536" lon="-1.54493">
        <ele>105.43481</ele>
        <time>2012-01-07T14:38:20Z</time>
      </trkpt>
      <trkpt lat="47.45518" lon="-1.54508">
        <ele>106.33968</ele>
        <time>2012-01-07T14:38:23Z</time>
      </trkpt>
      <trkpt lat="47.45499" lon="-1.5453">
        <ele>106.97143</ele>
        <time>2012-01-07T14:38:26Z</time>
      </trkpt>
      <trkpt lat="47.45488" lon="-1.5456">
        <ele>106.987946</ele>
        <time>2012-01-07T14:38:29Z</time>
      </trkpt>
      <trkpt lat="47.4548" lon="-1.54585">
        <ele>106.55742</ele>
        <time>2012-01-07T14:38:32Z</time>
      </trkpt>
      <trkpt lat="47.45462" lon="-1.54594">
        <ele>105.0605</ele>
        <time>2012-01-07T14:38:49Z</time>
      </trkpt>
      <trkpt lat="47.45446" lon="-1.54581">
        <ele>104.080765</ele>
        <time>2012-01-07T14:38:54Z</time>
      </trkpt>
      <trkpt lat="47.45429" lon="-1.54572">
        <ele>102.572876</ele>
        <time>2012-01-07T14:38:59Z</time>
      </trkpt>
      <trkpt lat="47.45411" lon="-1.54555">
        <ele>101.30782</ele>
        <time>2012-01-07T14:39:04Z</time>
      </trkpt>
      <trkpt lat="47.45392" lon="-1.54557">
        <ele>98</ele>
        <time>2012-01-07T14:39:09Z</time>
      </trkpt>
      <trkpt lat="47.45375" lon="-1.54572">
        <ele>98</ele>
        <time>2012-01-07T14:39:14Z</time>
      </trkpt>
      <trkpt lat="47.45356" lon="-1.5456">
        <ele>97.171875</ele>
        <time>2012-01-07T14:39:20Z</time>
      </trkpt>
      <trkpt lat="47.45342" lon="-1.54536">
        <ele>96.18329</ele>
        <time>2012-01-07T14:39:24Z</time>
      </trkpt>
      <trkpt lat="47.45329" lon="-1.5451">
        <ele>96.05799</ele>
        <time>2012-01-07T14:39:28Z</time>
      </trkpt>
      <trkpt lat="47.45317" lon="-1.54487">
        <ele>95.334755</ele>
        <time>2012-01-07T14:39:32Z</time>
      </trkpt>
      <trkpt lat="47.45306" lon="-1.54463">
        <ele>95.53951</ele>
        <time>2012-01-07T14:39:36Z</time>
      </trkpt>
      <trkpt lat="47.45296" lon="-1.54442">
        <ele>95.42071</ele>
        <time>2012-01-07T14:39:40Z</time>
      </trkpt>
      <trkpt lat="47.45288" lon="-1.54414">
        <ele>95.8969</ele>
        <time>2012-01-07T14:39:46Z</time>
      </trkpt>
      <trkpt lat="47.45294" lon="-1.54386">
        <ele>95.98624</ele>
        <time>2012-01-07T14:39:53Z</time>
      </trkpt>
      <trkpt lat="47.45301" lon="-1.5436">
        <ele>96.24897</ele>
        <time>2012-01-07T14:40:02Z</time>
      </trkpt>
      <trkpt lat="47.45307" lon="-1.54328">
        <ele>97.20771</ele>
        <time>2012-01-07T14:40:12Z</time>
      </trkpt>
      <trkpt lat="47.45304" lon="-1.543">
        <ele>98.19051</ele>
        <time>2012-01-07T14:40:21Z</time>
      </trkpt>
      <trkpt lat="47.45292" lon="-1.54279">
        <ele>98.891945</ele>
        <time>2012-01-07T14:40:28Z</time>
      </trkpt>
      <trkpt lat="47.45281" lon="-1.54253">
        <ele>99.74346</ele>
        <time>2012-01-07T14:40:34Z</time>
      </trkpt>
      <trkpt lat="47.45282" lon="-1.54221">
        <ele>100.25</ele>
        <time>2012-01-07T14:40:42Z</time>
      </trkpt>
      <trkpt lat="47.45275" lon="-1.54195">
        <ele>101.8661</ele>
        <time>2012-01-07T14:41:08Z</time>
      </trkpt>
      <trkpt lat="47.45267" lon="-1.54171">
        <ele>102.395134</ele>
        <time>2012-01-07T14:41:12Z</time>
      </trkpt>
      <trkpt lat="47.45259" lon="-1.54145">
        <ele>103.25</ele>
        <time>2012-01-07T14:41:16Z</time>
      </trkpt>
      <trkpt lat="47.45245" lon="-1.54126">
        <ele>102.75</ele>
        <time>2012-01-07T14:41:23Z</time>
      </trkpt>
      <trkpt lat="47.45224" lon="-1.54128">
        <ele>98.09595</ele>
        <time>2012-01-07T14:41:28Z</time>
      </trkpt>
      <trkpt lat="47.45205" lon="-1.5413">
        <ele>94.71786</ele>
        <time>2012-01-07T14:41:32Z</time>
      </trkpt>
      <trkpt lat="47.45186" lon="-1.54115">
        <ele>94.23578</ele>
        <time>2012-01-07T14:41:37Z</time>
      </trkpt>
      <trkpt lat="47.4517" lon="-1.54098">
        <ele>95.58632</ele>
        <time>2012-01-07T14:41:41Z</time>
      </trkpt>
      <trkpt lat="47.4515" lon="-1.54092">
        <ele>96.552704</ele>
        <time>2012-01-07T14:41:45Z</time>
      </trkpt>
      <trkpt lat="47.45129" lon="-1.54088">
        <ele>96.53035</ele>
        <time>2012-01-07T14:41:49Z</time>
      </trkpt>
      <trkpt lat="47.45114" lon="-1.5407">
        <ele>96.6014</ele>
        <time>2012-01-07T14:41:53Z</time>
      </trkpt>
      <trkpt lat="47.45111" lon="-1.54036">
        <ele>95.56459</ele>
        <time>2012-01-07T14:41:58Z</time>
      </trkpt>
      <trkpt lat="47.45112" lon="-1.54008">
        <ele>94</ele>
        <time>2012-01-07T14:42:02Z</time>
      </trkpt>
      <trkpt lat="47.45118" lon="-1.5398">
        <ele>93.5625</ele>
        <time>2012-01-07T14:42:07Z</time>
      </trkpt>
      <trkpt lat="47.45126" lon="-1.5395">
        <ele>93.133484</ele>
        <time>2012-01-07T14:42:12Z</time>
      </trkpt>
      <trkpt lat="47.45122" lon="-1.53922">
        <ele>93.62036</ele>
        <time>2012-01-07T14:42:16Z</time>
      </trkpt>
      <trkpt lat="47.45116" lon="-1.53897">
        <ele>93.87988</ele>
        <time>2012-01-07T14:42:20Z</time>
      </trkpt>
      <trkpt lat="47.45113" lon="-1.53869">
        <ele>94.645584</ele>
        <time>2012-01-07T14:42:24Z</time>
      </trkpt>
      <trkpt lat="47.45103" lon="-1.53843">
        <ele>94.88786</ele>
        <time>2012-01-07T14:42:28Z</time>
      </trkpt>
      <trkpt lat="47.4509" lon="-1.53815">
        <ele>94.28092</ele>
        <time>2012-01-07T14:42:32Z</time>
      </trkpt>
      <trkpt lat="47.45079" lon="-1.53791">
        <ele>93.29039</ele>
        <time>2012-01-07T14:42:35Z</time>
      </trkpt>
      <trkpt lat="47.45068" lon="-1.53761">
        <ele>92.40829</ele>
        <time>2012-01-07T14:42:39Z</time>
      </trkpt>
      <trkpt lat="47.45067" lon="-1.53729">
        <ele>92.12919</ele>
        <time>2012-01-07T14:42:43Z</time>
      </trkpt>
      <trkpt lat="47.45072" lon="-1.53697">
        <ele>92.030655</ele>
        <time>2012-01-07T14:42:48Z</time>
      </trkpt>
      <trkpt lat="47.45073" lon="-1.53665">
        <ele>91.42915</ele>
        <time>2012-01-07T14:42:53Z</time>
      </trkpt>
      <trkpt lat="47.45057" lon="-1.53648">
        <ele>90.41824</ele>
        <time>2012-01-07T14:42:58Z</time>
      </trkpt>
      <trkpt lat="47.4504" lon="-1.53639">
        <ele>88.62061</ele>
        <time>2012-01-07T14:43:02Z</time>
      </trkpt>
      <trkpt lat="47.45029" lon="-1.53618">
        <ele>86.70099</ele>
        <time>2012-01-07T14:43:07Z</time>
      </trkpt>
      <trkpt lat="47.45018" lon="-1.53596">
        <ele>86.16634</ele>
        <time>2012-01-07T14:43:12Z</time>
      </trkpt>
      <trkpt lat="47.45" lon="-1.53581">
        <ele>86.039474</ele>
        <time>2012-01-07T14:43:17Z</time>
      </trkpt>
      <trkpt lat="47.4498" lon="-1.53564">
        <ele>86.44687</ele>
        <time>2012-01-07T14:43:22Z</time>
      </trkpt>
      <trkpt lat="47.44963" lon="-1.53543">
        <ele>87.40311</ele>
        <time>2012-01-07T14:43:26Z</time>
      </trkpt>
      <trkpt lat="47.4495" lon="-1.53521">
        <ele>87.99864</ele>
        <time>2012-01-07T14:43:30Z</time>
      </trkpt>
      <trkpt lat="47.44938" lon="-1.535">
        <ele>87.56207</ele>
        <time>2012-01-07T14:43:34Z</time>
      </trkpt>
      <trkpt lat="47.44918" lon="-1.53461">
        <ele>85</ele>
        <time>2012-01-07T14:43:40Z</time>
      </trkpt>
      <trkpt lat="47.44906" lon="-1.53435">
        <ele>85</ele>
        <time>2012-01-07T14:43:44Z</time>
      </trkpt>
      <trkpt lat="47.44892" lon="-1.53409">
        <ele>84.75</ele>
        <time>2012-01-07T14:43:48Z</time>
      </trkpt>
      <trkpt lat="47.44881" lon="-1.53388">
        <ele>84.06641</ele>
        <time>2012-01-07T14:43:51Z</time>
      </trkpt>
      <trkpt lat="47.44873" lon="-1.53362">
        <ele>82.89992</ele>
        <time>2012-01-07T14:43:55Z</time>
      </trkpt>
      <trkpt lat="47.44862" lon="-1.53341">
        <ele>81.84724</ele>
        <time>2012-01-07T14:43:59Z</time>
      </trkpt>
      <trkpt lat="47.44853" lon="-1.53317">
        <ele>80.68995</ele>
        <time>2012-01-07T14:44:03Z</time>
      </trkpt>
      <trkpt lat="47.44847" lon="-1.53289">
        <ele>79.7808</ele>
        <time>2012-01-07T14:44:07Z</time>
      </trkpt>
    </trkseg>
  </trk>
</gpx>